Page Municipal Airport
KPGA : now visible

Airfield :











YOU CAN JOIN US ON...

 
LOGIN :

Register | Disclaimer

   EN    FR    IT 

 









Legend :    VFR   Marginal VFR   IFR   Intensive IFR   Very Intensive IFR
Visi :
Ceiling :
>= 8 km
>= 3000ft
5 to 8 km
1000 to 3000 ft
1500m to 5 km
500 to 1000 ft
800 to 1500m
200 to 500 ft
< 800m
< 200 ft
Symbols :   Thunderstorms  Fog  Heavy snow  Heavy precipitations  Wind > 20 kt






- Airport Elevation : 4316 ft


KPGA - Page Municipal

CURRENT METAR :
  • 231501Z AUTO 15003KT 10SM SCT028 BKN055 03/03 A3000 RMK AO2 T00330028 TSNO

EXPIRED METARs :
  • 231453Z AUTO 17003KT 10SM BKN028 BKN055 04/03 A3000 RMK AO2 SLP153 60003 T00390028 50011 TSNO
  • 231421Z AUTO 00000KT 10SM FEW004 SCT028 OVC060 03/03 A2999 RMK AO2 T00330028 TSNO
  • 231412Z AUTO 00000KT 10SM SCT004 BKN029 OVC065 03/03 A2998 RMK AO2 T00330028 TSNO
  • 231353Z AUTO 27003KT 10SM BKN004 OVC038 03/03 A2998 RMK AO2 RAE32 SLP149 P0001 T00330028 TSNO
  • 231253Z AUTO 23003KT 10SM -RA FEW029 OVC038 03/03 A2996 RMK AO2 SLP142 P0002 T00330028 TSNO

TAF KPGA
Valid from the 23 at 15:00 until the 24 at 12:00 UTC


231445Z 2315/2412 VRB05KT P6SM FEW004 SCT035 BKN060
TEMPO 2315/2316 P6SM BKN004 BKN025
FM231700 30010G16KT P6SM SCT030
FM240200 VRB05KT P6SM SKC



MET'MAP, your aeronautical weather chart ! - Copyright ORBIFLY December 2007 - Disclaimer

ORBIFLY MET'MAP TEAM :

Programming & Development : Alexandra Zaïnal
Concept & original design : Baudouin d'Aumeries
Assistance for programming : Marc-Olivier Méhu
Technical & hardware support : Manuel Goepfert

Contact : metmap@orbifly.com




SOURCES & CREDITS :

   NOAA       Earth
Advisory